sensor_id;sensor_type;location;lat;lon;timestamp;pressure;altitude;pressure_sealevel;temperature;humidity
10718;BME280;13513;42.700;23.124;2022-12-11T00:00:51;90919.59;;;13.47;100.00
10718;BME280;13513;42.700;23.124;2022-12-11T00:03:22;90911.85;;;13.48;100.00
10718;BME280;13513;42.700;23.124;2022-12-11T00:05:53;90913.26;;;13.45;100.00
10718;BME280;13513;42.700;23.124;2022-12-11T00:08:24;90886.82;;;13.51;100.00
10718;BME280;13513;42.700;23.124;2022-12-11T00:10:55;90929.02;;;13.50;100.00
10718;BME280;13513;42.700;23.124;2022-12-11T00:13:25;90929.50;;;13.52;100.00
10718;BME280;13513;42.700;23.124;2022-12-11T00:15:58;90928.78;;;13.49;100.00
10718;BME280;13513;42.700;23.124;2022-12-11T00:18:30;90922.55;;;13.45;100.00
10718;BME280;13513;42.700;23.124;2022-12-11T00:21:04;90922.30;;;13.36;100.00
10718;BME280;13513;42.700;23.124;2022-12-11T00:23:35;90938.66;;;13.21;100.00
10718;BME280;13513;42.700;23.124;2022-12-11T00:26:06;90929.42;;;13.38;100.00
10718;BME280;13513;42.700;23.124;2022-12-11T00:28:40;90922.79;;;13.38;100.00
10718;BME280;13513;42.700;23.124;2022-12-11T00:31:15;90914.13;;;13.35;100.00
10718;BME280;13513;42.700;23.124;2022-12-11T00:33:45;90913.50;;;13.38;100.00
10718;BME280;13513;42.700;23.124;2022-12-11T00:36:21;90905.59;;;13.35;100.00
10718;BME280;13513;42.700;23.124;2022-12-11T00:38:51;90904.67;;;13.40;100.00
10718;BME280;13513;42.700;23.124;2022-12-11T00:41:21;90899.85;;;13.42;100.00
10718;BME280;13513;42.700;23.124;2022-12-11T00:43:52;90910.52;;;13.39;100.00
10718;BME280;13513;42.700;23.124;2022-12-11T00:46:23;90893.28;;;13.48;100.00
10718;BME280;13513;42.700;23.124;2022-12-11T00:48:53;90904.83;;;13.60;100.00
10718;BME280;13513;42.700;23.124;2022-12-11T00:51:24;90913.73;;;13.64;100.00
10718;BME280;13513;42.700;23.124;2022-12-11T00:53:55;90879.69;;;13.66;100.00
10718;BME280;13513;42.700;23.124;2022-12-11T00:56:26;90885.55;;;13.74;100.00
10718;BME280;13513;42.700;23.124;2022-12-11T00:58:57;90887.77;;;13.87;100.00
10718;BME280;13513;42.700;23.124;2022-12-11T01:01:28;90892.06;;;13.85;100.00
10718;BME280;13513;42.700;23.124;2022-12-11T01:03:58;90889.19;;;13.76;100.00
10718;BME280;13513;42.700;23.124;2022-12-11T01:06:28;90889.84;;;13.64;100.00
10718;BME280;13513;42.700;23.124;2022-12-11T01:08:59;90906.48;;;13.42;100.00
10718;BME280;13513;42.700;23.124;2022-12-11T01:11:46;90933.08;;;13.31;100.00
10718;BME280;13513;42.700;23.124;2022-12-11T01:14:17;90945.84;;;13.12;100.00
10718;BME280;13513;42.700;23.124;2022-12-11T01:16:47;90914.78;;;13.04;100.00
10718;BME280;13513;42.700;23.124;2022-12-11T01:19:18;90895.39;;;12.95;100.00
10718;BME280;13513;42.700;23.124;2022-12-11T01:21:49;90907.14;;;12.83;100.00
10718;BME280;13513;42.700;23.124;2022-12-11T01:24:20;90895.78;;;12.82;100.00
10718;BME280;13513;42.700;23.124;2022-12-11T01:26:50;90897.41;;;12.89;100.00
10718;BME280;13513;42.700;23.124;2022-12-11T01:29:21;90884.10;;;12.92;100.00
10718;BME280;13513;42.700;23.124;2022-12-11T01:31:53;90889.14;;;12.91;100.00
10718;BME280;13513;42.700;23.124;2022-12-11T01:34:23;90896.16;;;12.87;100.00
10718;BME280;13513;42.700;23.124;2022-12-11T01:36:54;90891.97;;;12.66;100.00
10718;BME280;13513;42.700;23.124;2022-12-11T01:39:25;90875.77;;;12.68;100.00
10718;BME280;13513;42.700;23.124;2022-12-11T01:42:00;90903.23;;;12.80;100.00
10718;BME280;13513;42.700;23.124;2022-12-11T01:47:07;90908.46;;;12.83;100.00
10718;BME280;13513;42.700;23.124;2022-12-11T01:49:39;90903.72;;;12.82;100.00
10718;BME280;13513;42.700;23.124;2022-12-11T01:52:15;90907.32;;;12.86;100.00
10718;BME280;13513;42.700;23.124;2022-12-11T01:54:46;90906.07;;;12.84;100.00
10718;BME280;13513;42.700;23.124;2022-12-11T01:57:17;90911.72;;;12.80;100.00
10718;BME280;13513;42.700;23.124;2022-12-11T01:59:48;90902.27;;;12.68;100.00
10718;BME280;13513;42.700;23.124;2022-12-11T02:02:21;90904.80;;;12.73;100.00
10718;BME280;13513;42.700;23.124;2022-12-11T02:04:50;90903.84;;;12.69;100.00
10718;BME280;13513;42.700;23.124;2022-12-11T02:07:22;90916.84;;;12.68;100.00
10718;BME280;13513;42.700;23.124;2022-12-11T02:09:52;90897.91;;;12.72;100.00
10718;BME280;13513;42.700;23.124;2022-12-11T02:12:36;90909.57;;;12.62;100.00
10718;BME280;13513;42.700;23.124;2022-12-11T02:15:16;90897.27;;;12.58;100.00
10718;BME280;13513;42.700;23.124;2022-12-11T02:17:53;90898.52;;;12.60;100.00
10718;BME280;13513;42.700;23.124;2022-12-11T02:20:40;90923.77;;;12.66;100.00
10718;BME280;13513;42.700;23.124;2022-12-11T02:29:01;90913.62;;;12.60;100.00
10718;BME280;13513;42.700;23.124;2022-12-11T02:31:41;90928.19;;;12.60;100.00
10718;BME280;13513;42.700;23.124;2022-12-11T02:34:22;90937.77;;;12.58;100.00
10718;BME280;13513;42.700;23.124;2022-12-11T02:36:56;90911.69;;;12.63;100.00
10718;BME280;13513;42.700;23.124;2022-12-11T02:39:30;90897.72;;;12.60;100.00
10718;BME280;13513;42.700;23.124;2022-12-11T02:42:02;90892.27;;;12.56;100.00
10718;BME280;13513;42.700;23.124;2022-12-11T02:44:35;90897.27;;;12.58;100.00
10718;BME280;13513;42.700;23.124;2022-12-11T02:47:09;90899.30;;;12.61;100.00
10718;BME280;13513;42.700;23.124;2022-12-11T02:49:40;90892.69;;;12.69;100.00
10718;BME280;13513;42.700;23.124;2022-12-11T02:52:12;90892.00;;;12.75;100.00
10718;BME280;13513;42.700;23.124;2022-12-11T02:54:43;90898.42;;;12.82;100.00
10718;BME280;13513;42.700;23.124;2022-12-11T02:59:52;90871.92;;;12.91;100.00
10718;BME280;13513;42.700;23.124;2022-12-11T03:02:21;90865.14;;;12.87;100.00
10718;BME280;13513;42.700;23.124;2022-12-11T03:04:51;90870.91;;;12.81;100.00
10718;BME280;13513;42.700;23.124;2022-12-11T03:07:26;90868.71;;;12.83;100.00
10718;BME280;13513;42.700;23.124;2022-12-11T03:09:57;90873.25;;;12.82;100.00
10718;BME280;13513;42.700;23.124;2022-12-11T03:12:30;90870.83;;;12.83;100.00
10718;BME280;13513;42.700;23.124;2022-12-11T03:15:02;90856.02;;;12.82;100.00
10718;BME280;13513;42.700;23.124;2022-12-11T03:17:44;90872.95;;;12.84;100.00
10718;BME280;13513;42.700;23.124;2022-12-11T03:20:25;90871.36;;;12.83;100.00
10718;BME280;13513;42.700;23.124;2022-12-11T03:22:54;90882.73;;;12.75;100.00
10718;BME280;13513;42.700;23.124;2022-12-11T03:25:24;90878.59;;;12.80;100.00
10718;BME280;13513;42.700;23.124;2022-12-11T03:27:57;90867.69;;;12.81;100.00
10718;BME280;13513;42.700;23.124;2022-12-11T03:30:33;90849.70;;;12.81;100.00
10718;BME280;13513;42.700;23.124;2022-12-11T03:33:09;90871.62;;;12.84;100.00
10718;BME280;13513;42.700;23.124;2022-12-11T03:35:41;90862.87;;;12.83;100.00
10718;BME280;13513;42.700;23.124;2022-12-11T03:38:24;90882.75;;;12.83;100.00
10718;BME280;13513;42.700;23.124;2022-12-11T03:40:55;90881.09;;;12.76;100.00
10718;BME280;13513;42.700;23.124;2022-12-11T03:43:27;90891.80;;;12.82;100.00
10718;BME280;13513;42.700;23.124;2022-12-11T03:45:59;90886.55;;;12.80;100.00
10718;BME280;13513;42.700;23.124;2022-12-11T03:48:31;90884.00;;;12.86;100.00
10718;BME280;13513;42.700;23.124;2022-12-11T03:51:03;90882.22;;;12.84;100.00
10718;BME280;13513;42.700;23.124;2022-12-11T03:53:35;90881.66;;;12.84;100.00
10718;BME280;13513;42.700;23.124;2022-12-11T03:56:07;90901.08;;;12.82;100.00
10718;BME280;13513;42.700;23.124;2022-12-11T03:58:40;90901.61;;;12.82;100.00
10718;BME280;13513;42.700;23.124;2022-12-11T04:01:11;90910.35;;;12.82;100.00
10718;BME280;13513;42.700;23.124;2022-12-11T04:03:43;90897.41;;;12.89;100.00
10718;BME280;13513;42.700;23.124;2022-12-11T04:06:15;90913.30;;;12.89;100.00
10718;BME280;13513;42.700;23.124;2022-12-11T04:08:46;90913.56;;;12.90;100.00
10718;BME280;13513;42.700;23.124;2022-12-11T04:11:17;90922.91;;;12.96;100.00
10718;BME280;13513;42.700;23.124;2022-12-11T04:14:06;90924.09;;;12.93;100.00
10718;BME280;13513;42.700;23.124;2022-12-11T04:16:53;90938.81;;;12.88;100.00
10718;BME280;13513;42.700;23.124;2022-12-11T04:19:24;90946.58;;;12.84;100.00
10718;BME280;13513;42.700;23.124;2022-12-11T04:22:13;90944.80;;;12.91;100.00
10718;BME280;13513;42.700;23.124;2022-12-11T04:25:01;90954.38;;;12.89;100.00
10718;BME280;13513;42.700;23.124;2022-12-11T04:27:31;90956.09;;;12.85;100.00
10718;BME280;13513;42.700;23.124;2022-12-11T04:30:21;90943.25;;;12.90;100.00
10718;BME280;13513;42.700;23.124;2022-12-11T04:32:52;90942.08;;;12.85;100.00
10718;BME280;13513;42.700;23.124;2022-12-11T04:35:23;90951.66;;;12.83;100.00
10718;BME280;13513;42.700;23.124;2022-12-11T04:37:57;90957.19;;;12.84;100.00
10718;BME280;13513;42.700;23.124;2022-12-11T04:40:28;90953.70;;;12.86;100.00
10718;BME280;13513;42.700;23.124;2022-12-11T04:42:59;90961.39;;;12.85;100.00
10718;BME280;13513;42.700;23.124;2022-12-11T04:45:30;90955.86;;;12.84;100.00
10718;BME280;13513;42.700;23.124;2022-12-11T04:48:02;90966.53;;;12.82;100.00
10718;BME280;13513;42.700;23.124;2022-12-11T04:50:32;90959.38;;;12.82;100.00
10718;BME280;13513;42.700;23.124;2022-12-11T04:53:03;90968.47;;;12.79;100.00
10718;BME280;13513;42.700;23.124;2022-12-11T04:55:34;90973.69;;;12.81;100.00
10718;BME280;13513;42.700;23.124;2022-12-11T04:58:05;90971.34;;;12.80;100.00
10718;BME280;13513;42.700;23.124;2022-12-11T05:00:36;90969.11;;;12.84;100.00
10718;BME280;13513;42.700;23.124;2022-12-11T05:03:07;90979.37;;;12.77;100.00
10718;BME280;13513;42.700;23.124;2022-12-11T05:05:36;90980.23;;;12.75;100.00
10718;BME280;13513;42.700;23.124;2022-12-11T05:08:06;90988.86;;;12.70;100.00
10718;BME280;13513;42.700;23.124;2022-12-11T05:10:36;90989.05;;;12.62;100.00
10718;BME280;13513;42.700;23.124;2022-12-11T05:13:07;90986.09;;;12.64;100.00
10718;BME280;13513;42.700;23.124;2022-12-11T05:15:40;90992.25;;;12.62;100.00
10718;BME280;13513;42.700;23.124;2022-12-11T05:18:11;90981.17;;;12.60;100.00
10718;BME280;13513;42.700;23.124;2022-12-11T05:20:42;90972.53;;;12.57;100.00
10718;BME280;13513;42.700;23.124;2022-12-11T05:23:13;90976.59;;;12.63;100.00
10718;BME280;13513;42.700;23.124;2022-12-11T05:25:50;90981.09;;;12.62;100.00
10718;BME280;13513;42.700;23.124;2022-12-11T05:28:16;90979.47;;;12.64;100.00
10718;BME280;13513;42.700;23.124;2022-12-11T05:30:46;90981.23;;;12.57;100.00
10718;BME280;13513;42.700;23.124;2022-12-11T05:33:17;90977.48;;;12.50;100.00
10718;BME280;13513;42.700;23.124;2022-12-11T05:35:48;90973.20;;;12.51;100.00
10718;BME280;13513;42.700;23.124;2022-12-11T05:38:19;90973.13;;;12.54;100.00
10718;BME280;13513;42.700;23.124;2022-12-11T05:40:57;90983.13;;;12.57;100.00
10718;BME280;13513;42.700;23.124;2022-12-11T05:43:29;90950.42;;;12.50;100.00
10718;BME280;13513;42.700;23.124;2022-12-11T05:46:11;90967.58;;;12.53;100.00
10718;BME280;13513;42.700;23.124;2022-12-11T05:48:42;90973.86;;;12.57;100.00
10718;BME280;13513;42.700;23.124;2022-12-11T05:51:14;90954.59;;;12.54;100.00
10718;BME280;13513;42.700;23.124;2022-12-11T05:53:46;90955.77;;;12.59;100.00
10718;BME280;13513;42.700;23.124;2022-12-11T05:56:21;90956.42;;;12.64;100.00
10718;BME280;13513;42.700;23.124;2022-12-11T05:58:54;90959.91;;;12.62;100.00
10718;BME280;13513;42.700;23.124;2022-12-11T06:01:26;90953.98;;;12.57;100.00
10718;BME280;13513;42.700;23.124;2022-12-11T06:03:57;90955.61;;;12.55;100.00
10718;BME280;13513;42.700;23.124;2022-12-11T06:06:27;90950.70;;;12.60;100.00
10718;BME280;13513;42.700;23.124;2022-12-11T06:08:58;90955.09;;;12.64;100.00
10718;BME280;13513;42.700;23.124;2022-12-11T06:11:32;90955.09;;;12.64;100.00
10718;BME280;13513;42.700;23.124;2022-12-11T06:14:02;90947.61;;;12.66;100.00
10718;BME280;13513;42.700;23.124;2022-12-11T06:16:33;90946.77;;;12.68;100.00
10718;BME280;13513;42.700;23.124;2022-12-11T06:19:05;90961.50;;;12.72;100.00
10718;BME280;13513;42.700;23.124;2022-12-11T06:21:35;90958.92;;;12.69;100.00
10718;BME280;13513;42.700;23.124;2022-12-11T06:24:06;90965.05;;;12.78;100.00
10718;BME280;13513;42.700;23.124;2022-12-11T06:26:40;90965.20;;;12.82;100.00
10718;BME280;13513;42.700;23.124;2022-12-11T06:29:11;90968.88;;;12.83;100.00
10718;BME280;13513;42.700;23.124;2022-12-11T06:31:41;90985.20;;;12.88;100.00
10718;BME280;13513;42.700;23.124;2022-12-11T06:34:12;90975.84;;;12.90;100.00
10718;BME280;13513;42.700;23.124;2022-12-11T06:36:43;90981.30;;;12.94;100.00
10718;BME280;13513;42.700;23.124;2022-12-11T06:39:14;90985.11;;;13.01;100.00
10718;BME280;13513;42.700;23.124;2022-12-11T06:41:45;90970.92;;;13.06;100.00
10718;BME280;13513;42.700;23.124;2022-12-11T06:44:16;90959.63;;;13.11;100.00
10718;BME280;13513;42.700;23.124;2022-12-11T06:46:46;90970.30;;;13.09;100.00
10718;BME280;13513;42.700;23.124;2022-12-11T06:49:17;90946.30;;;13.14;100.00
10718;BME280;13513;42.700;23.124;2022-12-11T06:51:48;90959.42;;;13.19;100.00
10718;BME280;13513;42.700;23.124;2022-12-11T06:54:19;90961.00;;;13.28;100.00
10718;BME280;13513;42.700;23.124;2022-12-11T06:56:50;90962.48;;;13.32;100.00
10718;BME280;13513;42.700;23.124;2022-12-11T06:59:21;90956.40;;;13.40;100.00
10718;BME280;13513;42.700;23.124;2022-12-11T07:01:52;90960.94;;;13.56;100.00
10718;BME280;13513;42.700;23.124;2022-12-11T07:04:23;90966.33;;;13.71;100.00
10718;BME280;13513;42.700;23.124;2022-12-11T07:06:54;90969.22;;;13.80;100.00
10718;BME280;13513;42.700;23.124;2022-12-11T07:09:26;90967.90;;;13.97;100.00
10718;BME280;13513;42.700;23.124;2022-12-11T07:11:57;90971.47;;;14.27;100.00
10718;BME280;13513;42.700;23.124;2022-12-11T07:14:28;90977.13;;;14.48;100.00
10718;BME280;13513;42.700;23.124;2022-12-11T07:17:00;90986.89;;;14.73;100.00
10718;BME280;13513;42.700;23.124;2022-12-11T07:19:32;90980.84;;;14.56;100.00
10718;BME280;13513;42.700;23.124;2022-12-11T07:22:03;90995.87;;;14.52;100.00
10718;BME280;13513;42.700;23.124;2022-12-11T07:24:34;91007.30;;;14.75;100.00
10718;BME280;13513;42.700;23.124;2022-12-11T07:27:05;91008.93;;;14.82;100.00
10718;BME280;13513;42.700;23.124;2022-12-11T07:29:37;90999.66;;;14.88;100.00
10718;BME280;13513;42.700;23.124;2022-12-11T07:32:08;91005.63;;;15.81;99.27
10718;BME280;13513;42.700;23.124;2022-12-11T07:34:39;91007.80;;;16.14;93.63
10718;BME280;13513;42.700;23.124;2022-12-11T07:37:10;91002.36;;;16.17;92.61
10718;BME280;13513;42.700;23.124;2022-12-11T07:39:41;91009.55;;;16.10;93.15
10718;BME280;13513;42.700;23.124;2022-12-11T07:42:11;90993.48;;;16.60;90.51
10718;BME280;13513;42.700;23.124;2022-12-11T07:44:42;91009.39;;;16.80;87.78
10718;BME280;13513;42.700;23.124;2022-12-11T07:47:13;91010.67;;;16.95;84.12
10718;BME280;13513;42.700;23.124;2022-12-11T07:49:44;91006.30;;;16.46;86.47
10718;BME280;13513;42.700;23.124;2022-12-11T07:52:14;91017.11;;;16.35;90.51
10718;BME280;13513;42.700;23.124;2022-12-11T07:54:44;91013.33;;;16.56;86.49
10718;BME280;13513;42.700;23.124;2022-12-11T07:57:14;91015.17;;;16.44;88.33
10718;BME280;13513;42.700;23.124;2022-12-11T07:59:46;91020.14;;;16.60;86.94
10718;BME280;13513;42.700;23.124;2022-12-11T08:02:16;91018.12;;;15.95;90.19
10718;BME280;13513;42.700;23.124;2022-12-11T08:04:47;91005.88;;;15.38;95.08
10718;BME280;13513;42.700;23.124;2022-12-11T08:07:20;91012.63;;;14.98;100.00
10718;BME280;13513;42.700;23.124;2022-12-11T08:09:49;91024.80;;;14.76;100.00
10718;BME280;13513;42.700;23.124;2022-12-11T08:12:20;91025.34;;;14.76;100.00
10718;BME280;13513;42.700;23.124;2022-12-11T08:14:51;91026.11;;;14.53;100.00
10718;BME280;13513;42.700;23.124;2022-12-11T08:17:22;91042.23;;;14.48;100.00
10718;BME280;13513;42.700;23.124;2022-12-11T08:19:53;91048.88;;;14.31;100.00
10718;BME280;13513;42.700;23.124;2022-12-11T08:22:24;91038.30;;;14.20;100.00
10718;BME280;13513;42.700;23.124;2022-12-11T08:24:53;91048.39;;;14.21;100.00
10718;BME280;13513;42.700;23.124;2022-12-11T08:27:24;91036.91;;;14.06;100.00
10718;BME280;13513;42.700;23.124;2022-12-11T08:29:55;91036.38;;;14.06;100.00
10718;BME280;13513;42.700;23.124;2022-12-11T08:32:26;91030.34;;;13.95;100.00
10718;BME280;13513;42.700;23.124;2022-12-11T08:34:57;91032.77;;;13.94;100.00
10718;BME280;13513;42.700;23.124;2022-12-11T08:37:29;91027.38;;;13.96;100.00
10718;BME280;13513;42.700;23.124;2022-12-11T08:40:00;91025.44;;;14.08;100.00
10718;BME280;13513;42.700;23.124;2022-12-11T08:42:31;90998.89;;;13.82;100.00
10718;BME280;13513;42.700;23.124;2022-12-11T08:45:02;91023.55;;;13.66;100.00
10718;BME280;13513;42.700;23.124;2022-12-11T08:47:33;91025.97;;;13.65;100.00
10718;BME280;13513;42.700;23.124;2022-12-11T08:50:04;91023.31;;;13.65;100.00
10718;BME280;13513;42.700;23.124;2022-12-11T08:52:35;91029.95;;;13.82;100.00
10718;BME280;13513;42.700;23.124;2022-12-11T08:55:06;91033.06;;;13.84;100.00
10718;BME280;13513;42.700;23.124;2022-12-11T08:57:35;91033.55;;;14.03;100.00
10718;BME280;13513;42.700;23.124;2022-12-11T09:00:07;91028.24;;;14.45;100.00
10718;BME280;13513;42.700;23.124;2022-12-11T09:02:37;91023.88;;;14.72;100.00
10718;BME280;13513;42.700;23.124;2022-12-11T09:05:09;91030.41;;;14.60;100.00
10718;BME280;13513;42.700;23.124;2022-12-11T09:07:43;91025.10;;;14.43;100.00
10718;BME280;13513;42.700;23.124;2022-12-11T09:10:14;91033.19;;;14.72;100.00
10718;BME280;13513;42.700;23.124;2022-12-11T09:12:44;91025.79;;;14.63;100.00
10718;BME280;13513;42.700;23.124;2022-12-11T09:15:15;91031.01;;;14.74;100.00
10718;BME280;13513;42.700;23.124;2022-12-11T09:17:46;91040.14;;;14.71;100.00
10718;BME280;13513;42.700;23.124;2022-12-11T09:20:17;91032.29;;;14.83;100.00
10718;BME280;13513;42.700;23.124;2022-12-11T09:22:47;91028.72;;;15.16;100.00
10718;BME280;13513;42.700;23.124;2022-12-11T09:25:17;91031.89;;;15.24;100.00
10718;BME280;13513;42.700;23.124;2022-12-11T09:27:49;91028.28;;;15.29;100.00
10718;BME280;13513;42.700;23.124;2022-12-11T09:30:19;91033.73;;;14.95;100.00
10718;BME280;13513;42.700;23.124;2022-12-11T09:32:50;91028.05;;;14.67;100.00
10718;BME280;13513;42.700;23.124;2022-12-11T09:35:20;91028.66;;;14.73;100.00
10718;BME280;13513;42.700;23.124;2022-12-11T09:37:51;91039.81;;;14.81;100.00
10718;BME280;13513;42.700;23.124;2022-12-11T09:40:22;91028.89;;;14.74;100.00
10718;BME280;13513;42.700;23.124;2022-12-11T09:42:59;91020.71;;;14.87;100.00
10718;BME280;13513;42.700;23.124;2022-12-11T09:45:37;91027.95;;;14.70;100.00
10718;BME280;13513;42.700;23.124;2022-12-11T09:48:11;91022.83;;;14.56;100.00
10718;BME280;13513;42.700;23.124;2022-12-11T09:50:42;91006.53;;;14.66;100.00
10718;BME280;13513;42.700;23.124;2022-12-11T09:53:15;91023.95;;;14.78;100.00
10718;BME280;13513;42.700;23.124;2022-12-11T10:06:29;91008.86;;;14.76;100.00
10718;BME280;13513;42.700;23.124;2022-12-11T10:17:31;91009.16;;;14.52;100.00
10718;BME280;13513;42.700;23.124;2022-12-11T10:20:13;91004.00;;;14.55;100.00
10718;BME280;13513;42.700;23.124;2022-12-11T10:22:34;90999.50;;;14.39;100.00
10718;BME280;13513;42.700;23.124;2022-12-11T10:25:13;91014.48;;;14.18;100.00
10718;BME280;13513;42.700;23.124;2022-12-11T10:27:41;91005.05;;;14.31;100.00
10718;BME280;13513;42.700;23.124;2022-12-11T10:30:19;91019.80;;;14.18;100.00
10718;BME280;13513;42.700;23.124;2022-12-11T10:33:02;91019.83;;;14.35;100.00
10718;BME280;13513;42.700;23.124;2022-12-11T10:35:37;91016.77;;;14.30;100.00
10718;BME280;13513;42.700;23.124;2022-12-11T10:38:28;91023.41;;;14.30;100.00
10718;BME280;13513;42.700;23.124;2022-12-11T10:41:19;91013.19;;;14.35;100.00
10718;BME280;13513;42.700;23.124;2022-12-11T10:43:47;91013.13;;;14.60;100.00
10718;BME280;13513;42.700;23.124;2022-12-11T10:46:25;91010.17;;;14.53;100.00
10718;BME280;13513;42.700;23.124;2022-12-11T10:48:57;91009.16;;;14.43;100.00
10718;BME280;13513;42.700;23.124;2022-12-11T10:54:17;90994.37;;;14.25;100.00
10718;BME280;13513;42.700;23.124;2022-12-11T10:56:38;90989.73;;;14.20;100.00
10718;BME280;13513;42.700;23.124;2022-12-11T10:59:15;90988.70;;;14.35;100.00
10718;BME280;13513;42.700;23.124;2022-12-11T11:01:44;90984.58;;;14.40;100.00
10718;BME280;13513;42.700;23.124;2022-12-11T11:04:29;90975.20;;;14.34;100.00
10718;BME280;13513;42.700;23.124;2022-12-11T11:07:02;90980.83;;;14.33;100.00
10718;BME280;13513;42.700;23.124;2022-12-11T11:09:34;90982.61;;;14.18;100.00
10718;BME280;13513;42.700;23.124;2022-12-11T11:12:16;90986.28;;;14.19;100.00
10718;BME280;13513;42.700;23.124;2022-12-11T11:14:36;90988.25;;;14.33;100.00
10718;BME280;13513;42.700;23.124;2022-12-11T11:17:15;90989.32;;;14.41;100.00
10718;BME280;13513;42.700;23.124;2022-12-11T11:19:47;90972.36;;;14.39;100.00
10718;BME280;13513;42.700;23.124;2022-12-11T11:22:19;90985.20;;;14.37;100.00
10718;BME280;13513;42.700;23.124;2022-12-11T11:24:57;90993.61;;;14.48;100.00
10718;BME280;13513;42.700;23.124;2022-12-11T11:27:35;90982.77;;;14.38;100.00
10718;BME280;13513;42.700;23.124;2022-12-11T11:30:16;90983.61;;;14.45;100.00
10718;BME280;13513;42.700;23.124;2022-12-11T11:32:39;90988.78;;;14.41;100.00
10718;BME280;13513;42.700;23.124;2022-12-11T11:35:16;90989.01;;;14.42;100.00
10718;BME280;13513;42.700;23.124;2022-12-11T11:37:53;90986.36;;;14.34;100.00
10718;BME280;13513;42.700;23.124;2022-12-11T11:40:21;90985.02;;;14.42;100.00
10718;BME280;13513;42.700;23.124;2022-12-11T11:45:48;90978.05;;;14.52;100.00
10718;BME280;13513;42.700;23.124;2022-12-11T11:48:23;90987.06;;;14.37;100.00
10718;BME280;13513;42.700;23.124;2022-12-11T11:50:52;90978.08;;;14.35;100.00
10718;BME280;13513;42.700;23.124;2022-12-11T11:53:30;90970.67;;;14.35;100.00
10718;BME280;13513;42.700;23.124;2022-12-11T11:56:18;90968.72;;;14.38;100.00
10718;BME280;13513;42.700;23.124;2022-12-11T12:01:32;90949.97;;;14.26;100.00
10718;BME280;13513;42.700;23.124;2022-12-11T12:04:06;90948.48;;;14.14;100.00
10718;BME280;13513;42.700;23.124;2022-12-11T12:17:51;90958.82;;;13.81;100.00
10718;BME280;13513;42.700;23.124;2022-12-11T12:20:37;90964.30;;;13.76;100.00
10718;BME280;13513;42.700;23.124;2022-12-11T12:26:20;90967.89;;;13.80;100.00
10718;BME280;13513;42.700;23.124;2022-12-11T12:31:43;90971.63;;;13.62;100.00
10718;BME280;13513;42.700;23.124;2022-12-11T12:37:23;90968.44;;;13.46;100.00
10718;BME280;13513;42.700;23.124;2022-12-11T12:48:29;90976.27;;;13.31;100.00
10718;BME280;13513;42.700;23.124;2022-12-11T12:51:00;90977.84;;;13.04;100.00
10718;BME280;13513;42.700;23.124;2022-12-11T12:53:33;90989.47;;;12.67;100.00
10718;BME280;13513;42.700;23.124;2022-12-11T12:56:04;90994.20;;;12.17;100.00
10718;BME280;13513;42.700;23.124;2022-12-11T12:58:44;91007.63;;;11.87;100.00
10718;BME280;13513;42.700;23.124;2022-12-11T13:01:18;91004.08;;;11.56;100.00
10718;BME280;13513;42.700;23.124;2022-12-11T13:03:59;91007.81;;;11.17;100.00
10718;BME280;13513;42.700;23.124;2022-12-11T13:06:44;91006.52;;;10.90;100.00
10718;BME280;13513;42.700;23.124;2022-12-11T13:09:26;91014.37;;;10.68;100.00
10718;BME280;13513;42.700;23.124;2022-12-11T13:11:57;91020.00;;;10.48;100.00
10718;BME280;13513;42.700;23.124;2022-12-11T13:14:30;91027.44;;;10.17;100.00
10718;BME280;13513;42.700;23.124;2022-12-11T13:20:09;91044.97;;;9.18;100.00
10718;BME280;13513;42.700;23.124;2022-12-11T13:22:34;91053.37;;;8.78;100.00
10718;BME280;13513;42.700;23.124;2022-12-11T13:26:07;91060.03;;;8.47;100.00
10718;BME280;13513;42.700;23.124;2022-12-11T13:27:46;91061.58;;;8.21;100.00
10718;BME280;13513;42.700;23.124;2022-12-11T13:33:05;91064.18;;;7.57;100.00
10718;BME280;13513;42.700;23.124;2022-12-11T13:35:37;91067.97;;;7.41;100.00
10718;BME280;13513;42.700;23.124;2022-12-11T13:38:18;91060.44;;;7.24;100.00
10718;BME280;13513;42.700;23.124;2022-12-11T13:40:52;91089.16;;;7.03;100.00
10718;BME280;13513;42.700;23.124;2022-12-11T13:43:22;91101.11;;;6.73;100.00
10718;BME280;13513;42.700;23.124;2022-12-11T13:46:03;91121.63;;;6.49;100.00
10718;BME280;13513;42.700;23.124;2022-12-11T13:48:32;91132.13;;;6.41;100.00
10718;BME280;13513;42.700;23.124;2022-12-11T13:51:04;91140.00;;;6.26;100.00
10718;BME280;13513;42.700;23.124;2022-12-11T13:53:36;91143.68;;;6.13;100.00
10718;BME280;13513;42.700;23.124;2022-12-11T13:56:18;91160.20;;;5.98;100.00
10718;BME280;13513;42.700;23.124;2022-12-11T13:58:49;91163.09;;;5.84;100.00
10718;BME280;13513;42.700;23.124;2022-12-11T14:01:32;91172.20;;;5.67;100.00
10718;BME280;13513;42.700;23.124;2022-12-11T14:04:10;91174.25;;;5.52;100.00
10718;BME280;13513;42.700;23.124;2022-12-11T14:06:36;91161.95;;;5.48;100.00
10718;BME280;13513;42.700;23.124;2022-12-11T14:09:13;91165.88;;;5.53;100.00
10718;BME280;13513;42.700;23.124;2022-12-11T14:11:43;91179.48;;;5.50;100.00
10718;BME280;13513;42.700;23.124;2022-12-11T14:14:38;91186.83;;;5.50;100.00
10718;BME280;13513;42.700;23.124;2022-12-11T14:16:55;91195.39;;;5.26;100.00
10718;BME280;13513;42.700;23.124;2022-12-11T14:19:25;91195.39;;;5.26;100.00
10718;BME280;13513;42.700;23.124;2022-12-11T14:21:59;91208.50;;;5.33;100.00